sensor_id;sensor_type;location;lat;lon;timestamp;P1;durP1;ratioP1;P2;durP2;ratioP2
13897;SDS011;7019;50.766;4.474;2023-07-31T00:01:59;9.40;;;4.60;;
13897;SDS011;7019;50.766;4.474;2023-07-31T00:04:27;12.07;;;4.20;;
13897;SDS011;7019;50.766;4.474;2023-07-31T00:06:54;10.73;;;3.93;;
13897;SDS011;7019;50.766;4.474;2023-07-31T00:09:21;13.40;;;5.40;;
13897;SDS011;7019;50.766;4.474;2023-07-31T00:11:48;10.73;;;4.47;;
13897;SDS011;7019;50.766;4.474;2023-07-31T00:14:16;11.30;;;4.20;;
13897;SDS011;7019;50.766;4.474;2023-07-31T00:16:43;9.57;;;4.90;;
13897;SDS011;7019;50.766;4.474;2023-07-31T00:19:10;11.83;;;4.00;;
13897;SDS011;7019;50.766;4.474;2023-07-31T00:21:37;8.90;;;3.77;;
13897;SDS011;7019;50.766;4.474;2023-07-31T00:24:04;10.10;;;3.97;;
13897;SDS011;7019;50.766;4.474;2023-07-31T00:26:31;10.27;;;4.57;;
13897;SDS011;7019;50.766;4.474;2023-07-31T00:28:59;12.57;;;4.27;;
13897;SDS011;7019;50.766;4.474;2023-07-31T00:31:27;12.20;;;5.30;;
13897;SDS011;7019;50.766;4.474;2023-07-31T00:33:54;12.73;;;4.30;;
13897;SDS011;7019;50.766;4.474;2023-07-31T00:36:21;15.40;;;4.87;;
13897;SDS011;7019;50.766;4.474;2023-07-31T00:38:48;9.37;;;3.70;;
13897;SDS011;7019;50.766;4.474;2023-07-31T00:41:15;7.50;;;3.40;;
13897;SDS011;7019;50.766;4.474;2023-07-31T00:43:42;12.93;;;4.27;;
13897;SDS011;7019;50.766;4.474;2023-07-31T00:46:09;10.17;;;4.33;;
13897;SDS011;7019;50.766;4.474;2023-07-31T00:48:38;9.60;;;4.77;;
13897;SDS011;7019;50.766;4.474;2023-07-31T00:51:07;8.50;;;4.53;;
13897;SDS011;7019;50.766;4.474;2023-07-31T00:53:34;10.47;;;4.40;;
13897;SDS011;7019;50.766;4.474;2023-07-31T00:56:02;13.37;;;4.33;;
13897;SDS011;7019;50.766;4.474;2023-07-31T00:58:30;10.77;;;4.53;;
13897;SDS011;7019;50.766;4.474;2023-07-31T01:00:58;13.47;;;4.57;;
13897;SDS011;7019;50.766;4.474;2023-07-31T01:03:25;7.17;;;4.33;;
13897;SDS011;7019;50.766;4.474;2023-07-31T01:05:56;10.67;;;3.40;;
13897;SDS011;7019;50.766;4.474;2023-07-31T01:08:31;11.43;;;4.33;;
13897;SDS011;7019;50.766;4.474;2023-07-31T01:11:07;13.57;;;4.70;;
13897;SDS011;7019;50.766;4.474;2023-07-31T01:13:44;11.30;;;4.37;;
13897;SDS011;7019;50.766;4.474;2023-07-31T01:16:12;11.83;;;4.63;;
13897;SDS011;7019;50.766;4.474;2023-07-31T01:18:39;9.63;;;4.23;;
13897;SDS011;7019;50.766;4.474;2023-07-31T01:21:11;9.13;;;4.73;;
13897;SDS011;7019;50.766;4.474;2023-07-31T01:23:51;10.13;;;4.67;;
13897;SDS011;7019;50.766;4.474;2023-07-31T01:26:43;11.53;;;4.93;;
13897;SDS011;7019;50.766;4.474;2023-07-31T01:29:15;7.57;;;3.83;;
13897;SDS011;7019;50.766;4.474;2023-07-31T01:31:50;12.60;;;4.30;;
13897;SDS011;7019;50.766;4.474;2023-07-31T01:34:21;10.07;;;4.57;;
13897;SDS011;7019;50.766;4.474;2023-07-31T01:36:49;13.03;;;5.10;;
13897;SDS011;7019;50.766;4.474;2023-07-31T01:39:16;10.40;;;4.70;;
13897;SDS011;7019;50.766;4.474;2023-07-31T01:41:47;12.43;;;4.60;;
13897;SDS011;7019;50.766;4.474;2023-07-31T01:44:14;9.53;;;4.80;;
13897;SDS011;7019;50.766;4.474;2023-07-31T01:46:41;8.93;;;4.77;;
13897;SDS011;7019;50.766;4.474;2023-07-31T01:49:09;10.67;;;4.53;;
13897;SDS011;7019;50.766;4.474;2023-07-31T01:51:36;13.80;;;5.43;;
13897;SDS011;7019;50.766;4.474;2023-07-31T01:54:03;11.07;;;4.80;;
13897;SDS011;7019;50.766;4.474;2023-07-31T01:56:30;9.53;;;4.60;;
13897;SDS011;7019;50.766;4.474;2023-07-31T01:58:59;12.53;;;4.37;;
13897;SDS011;7019;50.766;4.474;2023-07-31T02:01:26;8.20;;;4.37;;
13897;SDS011;7019;50.766;4.474;2023-07-31T02:03:53;11.87;;;5.73;;
13897;SDS011;7019;50.766;4.474;2023-07-31T02:06:20;10.70;;;5.27;;
13897;SDS011;7019;50.766;4.474;2023-07-31T02:08:47;8.77;;;4.33;;
13897;SDS011;7019;50.766;4.474;2023-07-31T02:11:15;8.17;;;4.77;;
13897;SDS011;7019;50.766;4.474;2023-07-31T02:13:42;9.73;;;5.07;;
13897;SDS011;7019;50.766;4.474;2023-07-31T02:16:11;7.80;;;5.13;;
13897;SDS011;7019;50.766;4.474;2023-07-31T02:18:38;13.63;;;5.83;;
13897;SDS011;7019;50.766;4.474;2023-07-31T02:21:05;8.17;;;4.57;;
13897;SDS011;7019;50.766;4.474;2023-07-31T02:23:32;9.30;;;5.10;;
13897;SDS011;7019;50.766;4.474;2023-07-31T02:25:59;10.57;;;5.17;;
13897;SDS011;7019;50.766;4.474;2023-07-31T02:28:26;10.70;;;4.73;;
13897;SDS011;7019;50.766;4.474;2023-07-31T02:30:53;10.07;;;4.97;;
13897;SDS011;7019;50.766;4.474;2023-07-31T02:33:21;8.57;;;4.57;;
13897;SDS011;7019;50.766;4.474;2023-07-31T02:35:48;9.33;;;4.70;;
13897;SDS011;7019;50.766;4.474;2023-07-31T02:38:15;6.37;;;4.63;;
13897;SDS011;7019;50.766;4.474;2023-07-31T02:40:42;7.93;;;4.67;;
13897;SDS011;7019;50.766;4.474;2023-07-31T02:43:09;8.23;;;4.80;;
13897;SDS011;7019;50.766;4.474;2023-07-31T02:45:36;6.57;;;3.67;;
13897;SDS011;7019;50.766;4.474;2023-07-31T02:48:04;8.30;;;5.23;;
13897;SDS011;7019;50.766;4.474;2023-07-31T02:50:32;6.23;;;3.73;;
13897;SDS011;7019;50.766;4.474;2023-07-31T02:52:59;8.43;;;4.30;;
13897;SDS011;7019;50.766;4.474;2023-07-31T02:55:26;9.37;;;4.60;;
13897;SDS011;7019;50.766;4.474;2023-07-31T02:57:53;10.23;;;4.20;;
13897;SDS011;7019;50.766;4.474;2023-07-31T03:00:20;7.70;;;4.43;;
13897;SDS011;7019;50.766;4.474;2023-07-31T03:02:48;8.47;;;4.73;;
13897;SDS011;7019;50.766;4.474;2023-07-31T03:05:15;7.00;;;4.23;;
13897;SDS011;7019;50.766;4.474;2023-07-31T03:07:43;5.23;;;3.60;;
13897;SDS011;7019;50.766;4.474;2023-07-31T03:10:10;5.30;;;3.60;;
13897;SDS011;7019;50.766;4.474;2023-07-31T03:12:37;6.10;;;3.90;;
13897;SDS011;7019;50.766;4.474;2023-07-31T03:15:05;6.63;;;3.27;;
13897;SDS011;7019;50.766;4.474;2023-07-31T03:17:32;5.87;;;3.93;;
13897;SDS011;7019;50.766;4.474;2023-07-31T03:19:59;6.80;;;4.03;;
13897;SDS011;7019;50.766;4.474;2023-07-31T03:22:26;7.13;;;3.93;;
13897;SDS011;7019;50.766;4.474;2023-07-31T03:24:55;8.13;;;4.20;;
13897;SDS011;7019;50.766;4.474;2023-07-31T03:27:22;9.93;;;3.70;;
13897;SDS011;7019;50.766;4.474;2023-07-31T03:29:49;8.80;;;4.03;;
13897;SDS011;7019;50.766;4.474;2023-07-31T03:32:16;5.97;;;3.60;;
13897;SDS011;7019;50.766;4.474;2023-07-31T03:34:44;6.63;;;3.53;;
13897;SDS011;7019;50.766;4.474;2023-07-31T03:37:11;8.57;;;3.60;;
13897;SDS011;7019;50.766;4.474;2023-07-31T03:39:38;11.60;;;4.33;;
13897;SDS011;7019;50.766;4.474;2023-07-31T03:42:06;6.97;;;3.40;;
13897;SDS011;7019;50.766;4.474;2023-07-31T03:44:33;8.37;;;3.97;;
13897;SDS011;7019;50.766;4.474;2023-07-31T03:47:00;8.73;;;4.10;;
13897;SDS011;7019;50.766;4.474;2023-07-31T03:49:28;8.67;;;4.17;;
13897;SDS011;7019;50.766;4.474;2023-07-31T03:51:55;8.70;;;4.50;;
13897;SDS011;7019;50.766;4.474;2023-07-31T03:54:22;7.17;;;3.40;;
13897;SDS011;7019;50.766;4.474;2023-07-31T03:56:49;8.80;;;4.10;;
13897;SDS011;7019;50.766;4.474;2023-07-31T03:59:17;7.13;;;4.10;;
13897;SDS011;7019;50.766;4.474;2023-07-31T04:01:44;7.53;;;3.50;;
13897;SDS011;7019;50.766;4.474;2023-07-31T04:04:11;8.33;;;3.60;;
13897;SDS011;7019;50.766;4.474;2023-07-31T04:06:38;6.47;;;3.97;;
13897;SDS011;7019;50.766;4.474;2023-07-31T04:09:05;6.40;;;3.70;;
13897;SDS011;7019;50.766;4.474;2023-07-31T04:11:33;8.40;;;4.53;;
13897;SDS011;7019;50.766;4.474;2023-07-31T04:14:00;7.77;;;3.83;;
13897;SDS011;7019;50.766;4.474;2023-07-31T04:16:28;7.00;;;3.60;;
13897;SDS011;7019;50.766;4.474;2023-07-31T04:18:55;8.93;;;4.00;;
13897;SDS011;7019;50.766;4.474;2023-07-31T04:21:22;8.63;;;3.73;;
13897;SDS011;7019;50.766;4.474;2023-07-31T04:23:49;6.30;;;3.83;;
13897;SDS011;7019;50.766;4.474;2023-07-31T04:26:20;5.27;;;3.27;;
13897;SDS011;7019;50.766;4.474;2023-07-31T04:28:47;8.33;;;4.30;;
13897;SDS011;7019;50.766;4.474;2023-07-31T04:31:15;6.40;;;3.80;;
13897;SDS011;7019;50.766;4.474;2023-07-31T04:33:43;8.60;;;3.97;;
13897;SDS011;7019;50.766;4.474;2023-07-31T04:36:10;5.03;;;3.30;;
13897;SDS011;7019;50.766;4.474;2023-07-31T04:38:37;6.83;;;3.57;;
13897;SDS011;7019;50.766;4.474;2023-07-31T04:41:06;6.20;;;3.50;;
13897;SDS011;7019;50.766;4.474;2023-07-31T04:43:33;5.83;;;3.77;;
13897;SDS011;7019;50.766;4.474;2023-07-31T04:46:00;6.77;;;3.30;;
13897;SDS011;7019;50.766;4.474;2023-07-31T04:48:27;7.23;;;3.53;;
13897;SDS011;7019;50.766;4.474;2023-07-31T04:50:55;8.77;;;3.43;;
13897;SDS011;7019;50.766;4.474;2023-07-31T04:53:22;7.60;;;3.40;;
13897;SDS011;7019;50.766;4.474;2023-07-31T04:55:49;6.13;;;3.60;;
13897;SDS011;7019;50.766;4.474;2023-07-31T04:58:16;5.43;;;3.63;;
13897;SDS011;7019;50.766;4.474;2023-07-31T05:00:43;7.27;;;3.50;;
13897;SDS011;7019;50.766;4.474;2023-07-31T05:03:11;6.00;;;3.63;;
13897;SDS011;7019;50.766;4.474;2023-07-31T05:05:38;9.53;;;3.77;;
13897;SDS011;7019;50.766;4.474;2023-07-31T05:08:06;7.97;;;3.70;;
13897;SDS011;7019;50.766;4.474;2023-07-31T05:10:34;7.10;;;3.40;;
13897;SDS011;7019;50.766;4.474;2023-07-31T05:13:01;7.37;;;3.53;;
13897;SDS011;7019;50.766;4.474;2023-07-31T05:15:28;7.47;;;3.93;;
13897;SDS011;7019;50.766;4.474;2023-07-31T05:17:55;7.77;;;3.73;;
13897;SDS011;7019;50.766;4.474;2023-07-31T05:20:22;5.93;;;3.50;;
13897;SDS011;7019;50.766;4.474;2023-07-31T05:22:49;11.00;;;3.57;;
13897;SDS011;7019;50.766;4.474;2023-07-31T05:25:18;5.50;;;3.20;;
13897;SDS011;7019;50.766;4.474;2023-07-31T05:27:46;6.47;;;3.60;;
13897;SDS011;7019;50.766;4.474;2023-07-31T05:30:12;5.80;;;3.30;;
13897;SDS011;7019;50.766;4.474;2023-07-31T05:32:39;8.00;;;3.77;;
13897;SDS011;7019;50.766;4.474;2023-07-31T05:35:07;6.43;;;3.80;;
13897;SDS011;7019;50.766;4.474;2023-07-31T05:37:34;6.73;;;3.47;;
13897;SDS011;7019;50.766;4.474;2023-07-31T05:40:01;5.33;;;3.33;;
13897;SDS011;7019;50.766;4.474;2023-07-31T05:42:30;7.77;;;4.60;;
13897;SDS011;7019;50.766;4.474;2023-07-31T05:44:57;6.37;;;3.80;;
13897;SDS011;7019;50.766;4.474;2023-07-31T05:47:24;7.23;;;3.40;;
13897;SDS011;7019;50.766;4.474;2023-07-31T05:49:51;7.20;;;3.60;;
13897;SDS011;7019;50.766;4.474;2023-07-31T05:52:18;6.70;;;3.97;;
13897;SDS011;7019;50.766;4.474;2023-07-31T05:54:46;9.00;;;3.90;;
13897;SDS011;7019;50.766;4.474;2023-07-31T05:57:13;8.10;;;3.53;;
13897;SDS011;7019;50.766;4.474;2023-07-31T05:59:41;4.70;;;3.20;;
13897;SDS011;7019;50.766;4.474;2023-07-31T06:02:08;8.70;;;3.67;;
13897;SDS011;7019;50.766;4.474;2023-07-31T06:04:35;8.70;;;3.80;;
13897;SDS011;7019;50.766;4.474;2023-07-31T06:07:03;9.73;;;4.37;;
13897;SDS011;7019;50.766;4.474;2023-07-31T06:09:30;9.07;;;4.43;;
13897;SDS011;7019;50.766;4.474;2023-07-31T06:11:57;8.07;;;3.93;;
13897;SDS011;7019;50.766;4.474;2023-07-31T06:14:24;9.17;;;4.20;;
13897;SDS011;7019;50.766;4.474;2023-07-31T06:16:53;10.03;;;4.20;;
13897;SDS011;7019;50.766;4.474;2023-07-31T06:19:20;11.17;;;4.10;;
13897;SDS011;7019;50.766;4.474;2023-07-31T06:21:47;8.47;;;3.80;;
13897;SDS011;7019;50.766;4.474;2023-07-31T06:24:14;6.50;;;3.97;;
13897;SDS011;7019;50.766;4.474;2023-07-31T06:26:44;6.87;;;3.70;;
13897;SDS011;7019;50.766;4.474;2023-07-31T06:29:11;9.77;;;4.20;;
13897;SDS011;7019;50.766;4.474;2023-07-31T06:31:38;7.30;;;3.87;;
13897;SDS011;7019;50.766;4.474;2023-07-31T06:34:08;6.80;;;2.80;;
13897;SDS011;7019;50.766;4.474;2023-07-31T06:36:35;6.80;;;3.40;;
13897;SDS011;7019;50.766;4.474;2023-07-31T06:39:02;8.93;;;3.77;;
13897;SDS011;7019;50.766;4.474;2023-07-31T06:41:29;10.77;;;3.90;;
13897;SDS011;7019;50.766;4.474;2023-07-31T06:43:56;4.87;;;3.10;;
13897;SDS011;7019;50.766;4.474;2023-07-31T06:46:23;8.40;;;3.13;;
13897;SDS011;7019;50.766;4.474;2023-07-31T06:48:50;6.73;;;3.27;;
13897;SDS011;7019;50.766;4.474;2023-07-31T06:51:18;6.73;;;3.00;;
13897;SDS011;7019;50.766;4.474;2023-07-31T06:53:45;7.63;;;3.03;;
13897;SDS011;7019;50.766;4.474;2023-07-31T06:56:12;5.20;;;3.40;;
13897;SDS011;7019;50.766;4.474;2023-07-31T06:58:39;3.60;;;2.90;;
13897;SDS011;7019;50.766;4.474;2023-07-31T07:01:06;6.67;;;3.20;;
13897;SDS011;7019;50.766;4.474;2023-07-31T07:03:33;7.00;;;3.33;;
13897;SDS011;7019;50.766;4.474;2023-07-31T07:06:00;7.37;;;2.90;;
13897;SDS011;7019;50.766;4.474;2023-07-31T07:08:29;9.10;;;3.10;;
13897;SDS011;7019;50.766;4.474;2023-07-31T07:10:56;5.83;;;2.90;;
13897;SDS011;7019;50.766;4.474;2023-07-31T07:13:23;5.00;;;2.70;;
13897;SDS011;7019;50.766;4.474;2023-07-31T07:15:50;5.03;;;2.90;;
13897;SDS011;7019;50.766;4.474;2023-07-31T07:18:17;5.30;;;3.60;;
13897;SDS011;7019;50.766;4.474;2023-07-31T07:20:46;3.87;;;2.30;;
13897;SDS011;7019;50.766;4.474;2023-07-31T07:23:14;3.43;;;2.50;;
13897;SDS011;7019;50.766;4.474;2023-07-31T07:25:42;5.80;;;2.43;;
13897;SDS011;7019;50.766;4.474;2023-07-31T07:28:10;4.43;;;2.60;;
13897;SDS011;7019;50.766;4.474;2023-07-31T07:30:37;4.57;;;2.60;;
13897;SDS011;7019;50.766;4.474;2023-07-31T07:33:04;6.10;;;2.73;;
13897;SDS011;7019;50.766;4.474;2023-07-31T07:35:32;5.87;;;2.53;;
13897;SDS011;7019;50.766;4.474;2023-07-31T07:38:00;7.87;;;3.13;;
13897;SDS011;7019;50.766;4.474;2023-07-31T07:40:28;5.63;;;2.50;;
13897;SDS011;7019;50.766;4.474;2023-07-31T07:42:56;6.20;;;2.70;;
13897;SDS011;7019;50.766;4.474;2023-07-31T07:45:25;4.23;;;2.63;;
13897;SDS011;7019;50.766;4.474;2023-07-31T07:47:52;6.50;;;2.47;;
13897;SDS011;7019;50.766;4.474;2023-07-31T07:50:19;4.73;;;2.87;;
13897;SDS011;7019;50.766;4.474;2023-07-31T07:52:46;5.23;;;2.67;;
13897;SDS011;7019;50.766;4.474;2023-07-31T07:55:13;5.83;;;2.70;;
13897;SDS011;7019;50.766;4.474;2023-07-31T07:57:40;6.33;;;2.40;;
13897;SDS011;7019;50.766;4.474;2023-07-31T08:00:11;6.17;;;2.53;;
13897;SDS011;7019;50.766;4.474;2023-07-31T08:02:40;5.27;;;2.83;;
13897;SDS011;7019;50.766;4.474;2023-07-31T08:05:07;10.50;;;2.63;;
13897;SDS011;7019;50.766;4.474;2023-07-31T08:07:35;5.13;;;2.20;;
13897;SDS011;7019;50.766;4.474;2023-07-31T08:10:02;6.27;;;2.77;;
13897;SDS011;7019;50.766;4.474;2023-07-31T08:12:29;7.43;;;2.43;;
13897;SDS011;7019;50.766;4.474;2023-07-31T08:14:56;4.00;;;2.43;;
13897;SDS011;7019;50.766;4.474;2023-07-31T08:17:26;4.37;;;2.63;;
13897;SDS011;7019;50.766;4.474;2023-07-31T08:19:53;3.77;;;2.47;;
13897;SDS011;7019;50.766;4.474;2023-07-31T08:22:23;6.30;;;2.37;;
13897;SDS011;7019;50.766;4.474;2023-07-31T08:24:50;5.43;;;2.63;;
13897;SDS011;7019;50.766;4.474;2023-07-31T08:27:17;4.53;;;2.33;;
13897;SDS011;7019;50.766;4.474;2023-07-31T08:29:44;6.20;;;2.40;;
13897;SDS011;7019;50.766;4.474;2023-07-31T08:32:11;4.47;;;2.53;;
13897;SDS011;7019;50.766;4.474;2023-07-31T08:34:40;6.27;;;2.37;;
13897;SDS011;7019;50.766;4.474;2023-07-31T08:37:07;4.90;;;2.67;;
13897;SDS011;7019;50.766;4.474;2023-07-31T08:39:34;4.47;;;2.07;;
13897;SDS011;7019;50.766;4.474;2023-07-31T08:42:07;4.73;;;2.47;;
13897;SDS011;7019;50.766;4.474;2023-07-31T08:44:34;4.00;;;2.30;;
13897;SDS011;7019;50.766;4.474;2023-07-31T08:47:02;4.23;;;2.00;;
13897;SDS011;7019;50.766;4.474;2023-07-31T08:49:30;4.90;;;2.33;;
13897;SDS011;7019;50.766;4.474;2023-07-31T08:51:59;8.50;;;2.30;;
13897;SDS011;7019;50.766;4.474;2023-07-31T08:54:27;6.50;;;2.60;;
13897;SDS011;7019;50.766;4.474;2023-07-31T08:56:56;2.80;;;1.97;;
13897;SDS011;7019;50.766;4.474;2023-07-31T08:59:25;5.03;;;2.37;;
13897;SDS011;7019;50.766;4.474;2023-07-31T09:01:55;6.83;;;2.50;;
13897;SDS011;7019;50.766;4.474;2023-07-31T09:04:24;6.67;;;2.50;;
13897;SDS011;7019;50.766;4.474;2023-07-31T09:06:52;5.47;;;1.90;;
13897;SDS011;7019;50.766;4.474;2023-07-31T09:09:24;4.97;;;2.33;;
13897;SDS011;7019;50.766;4.474;2023-07-31T09:11:52;3.53;;;2.13;;
13897;SDS011;7019;50.766;4.474;2023-07-31T09:14:19;5.00;;;2.23;;
13897;SDS011;7019;50.766;4.474;2023-07-31T09:16:53;6.10;;;2.97;;
13897;SDS011;7019;50.766;4.474;2023-07-31T09:19:27;4.80;;;2.10;;
13897;SDS011;7019;50.766;4.474;2023-07-31T09:21:55;4.30;;;2.50;;
13897;SDS011;7019;50.766;4.474;2023-07-31T09:24:27;5.13;;;2.27;;
13897;SDS011;7019;50.766;4.474;2023-07-31T09:26:56;4.83;;;2.33;;
13897;SDS011;7019;50.766;4.474;2023-07-31T09:29:25;5.93;;;2.53;;
13897;SDS011;7019;50.766;4.474;2023-07-31T09:31:54;5.67;;;2.80;;
13897;SDS011;7019;50.766;4.474;2023-07-31T09:34:28;6.23;;;2.80;;
13897;SDS011;7019;50.766;4.474;2023-07-31T09:36:57;5.33;;;2.60;;
13897;SDS011;7019;50.766;4.474;2023-07-31T09:39:29;4.50;;;3.00;;
13897;SDS011;7019;50.766;4.474;2023-07-31T09:41:56;5.03;;;2.50;;
13897;SDS011;7019;50.766;4.474;2023-07-31T09:44:36;3.13;;;2.30;;
13897;SDS011;7019;50.766;4.474;2023-07-31T09:47:05;6.07;;;3.20;;
13897;SDS011;7019;50.766;4.474;2023-07-31T09:49:33;5.07;;;2.70;;
13897;SDS011;7019;50.766;4.474;2023-07-31T09:52:00;4.63;;;2.83;;
13897;SDS011;7019;50.766;4.474;2023-07-31T09:54:28;5.47;;;3.43;;
13897;SDS011;7019;50.766;4.474;2023-07-31T09:56:55;9.77;;;3.63;;
13897;SDS011;7019;50.766;4.474;2023-07-31T09:59:24;8.47;;;3.53;;
13897;SDS011;7019;50.766;4.474;2023-07-31T10:01:52;5.40;;;3.00;;
13897;SDS011;7019;50.766;4.474;2023-07-31T10:04:21;6.87;;;3.27;;
13897;SDS011;7019;50.766;4.474;2023-07-31T10:06:52;6.67;;;2.93;;
13897;SDS011;7019;50.766;4.474;2023-07-31T10:09:21;7.13;;;3.63;;
13897;SDS011;7019;50.766;4.474;2023-07-31T10:11:55;5.87;;;3.50;;
13897;SDS011;7019;50.766;4.474;2023-07-31T10:14:25;9.33;;;3.63;;
13897;SDS011;7019;50.766;4.474;2023-07-31T10:16:53;7.83;;;3.53;;
13897;SDS011;7019;50.766;4.474;2023-07-31T10:19:22;7.53;;;3.60;;
13897;SDS011;7019;50.766;4.474;2023-07-31T10:21:49;5.33;;;3.00;;
13897;SDS011;7019;50.766;4.474;2023-07-31T10:24:17;7.20;;;3.83;;
13897;SDS011;7019;50.766;4.474;2023-07-31T10:26:45;5.60;;;3.20;;
13897;SDS011;7019;50.766;4.474;2023-07-31T10:29:17;8.43;;;3.80;;
13897;SDS011;7019;50.766;4.474;2023-07-31T10:31:45;6.97;;;3.73;;
13897;SDS011;7019;50.766;4.474;2023-07-31T10:34:14;7.73;;;4.10;;
13897;SDS011;7019;50.766;4.474;2023-07-31T10:36:41;5.70;;;3.50;;
13897;SDS011;7019;50.766;4.474;2023-07-31T10:42:09;10.17;;;3.53;;
13897;SDS011;7019;50.766;4.474;2023-07-31T10:44:38;7.30;;;3.60;;
13897;SDS011;7019;50.766;4.474;2023-07-31T10:47:09;7.70;;;3.47;;
13897;SDS011;7019;50.766;4.474;2023-07-31T10:49:40;6.33;;;3.53;;
13897;SDS011;7019;50.766;4.474;2023-07-31T10:52:10;7.57;;;3.67;;
13897;SDS011;7019;50.766;4.474;2023-07-31T10:54:39;5.53;;;2.87;;
13897;SDS011;7019;50.766;4.474;2023-07-31T10:57:18;8.43;;;3.70;;
13897;SDS011;7019;50.766;4.474;2023-07-31T10:59:48;5.73;;;3.33;;
13897;SDS011;7019;50.766;4.474;2023-07-31T11:02:25;11.90;;;4.03;;
13897;SDS011;7019;50.766;4.474;2023-07-31T11:07:47;7.17;;;3.60;;
13897;SDS011;7019;50.766;4.474;2023-07-31T11:10:16;9.90;;;3.90;;
13897;SDS011;7019;50.766;4.474;2023-07-31T11:12:44;8.37;;;3.33;;
13897;SDS011;7019;50.766;4.474;2023-07-31T11:15:13;6.23;;;3.50;;
13897;SDS011;7019;50.766;4.474;2023-07-31T11:17:41;9.60;;;3.60;;
13897;SDS011;7019;50.766;4.474;2023-07-31T11:20:08;6.00;;;3.60;;
13897;SDS011;7019;50.766;4.474;2023-07-31T11:22:36;7.70;;;3.60;;
13897;SDS011;7019;50.766;4.474;2023-07-31T11:25:03;8.07;;;3.77;;
13897;SDS011;7019;50.766;4.474;2023-07-31T11:27:30;7.23;;;3.50;;
13897;SDS011;7019;50.766;4.474;2023-07-31T11:30:05;8.47;;;4.07;;
13897;SDS011;7019;50.766;4.474;2023-07-31T11:32:35;8.60;;;3.30;;
13897;SDS011;7019;50.766;4.474;2023-07-31T11:35:03;8.70;;;3.83;;
13897;SDS011;7019;50.766;4.474;2023-07-31T11:37:39;5.37;;;3.33;;
13897;SDS011;7019;50.766;4.474;2023-07-31T11:40:07;6.80;;;3.13;;
13897;SDS011;7019;50.766;4.474;2023-07-31T11:42:35;10.27;;;4.03;;
13897;SDS011;7019;50.766;4.474;2023-07-31T11:45:03;8.40;;;3.60;;
13897;SDS011;7019;50.766;4.474;2023-07-31T11:47:32;6.70;;;3.67;;
13897;SDS011;7019;50.766;4.474;2023-07-31T11:50:01;4.90;;;3.27;;
13897;SDS011;7019;50.766;4.474;2023-07-31T11:52:28;8.03;;;3.20;;
13897;SDS011;7019;50.766;4.474;2023-07-31T11:54:59;9.67;;;3.80;;
13897;SDS011;7019;50.766;4.474;2023-07-31T11:57:26;4.13;;;3.00;;
13897;SDS011;7019;50.766;4.474;2023-07-31T11:59:55;5.73;;;3.47;;
13897;SDS011;7019;50.766;4.474;2023-07-31T12:02:24;5.83;;;3.70;;
13897;SDS011;7019;50.766;4.474;2023-07-31T12:04:53;7.53;;;3.07;;
13897;SDS011;7019;50.766;4.474;2023-07-31T12:07:20;6.57;;;3.63;;
13897;SDS011;7019;50.766;4.474;2023-07-31T12:09:53;6.67;;;3.57;;
13897;SDS011;7019;50.766;4.474;2023-07-31T12:12:20;6.93;;;3.77;;
13897;SDS011;7019;50.766;4.474;2023-07-31T12:14:48;7.20;;;3.53;;
13897;SDS011;7019;50.766;4.474;2023-07-31T12:17:17;5.93;;;3.07;;
13897;SDS011;7019;50.766;4.474;2023-07-31T12:19:48;7.30;;;3.43;;
13897;SDS011;7019;50.766;4.474;2023-07-31T12:22:16;6.17;;;3.67;;
13897;SDS011;7019;50.766;4.474;2023-07-31T12:24:43;8.33;;;3.53;;
13897;SDS011;7019;50.766;4.474;2023-07-31T12:27:11;6.40;;;2.80;;
13897;SDS011;7019;50.766;4.474;2023-07-31T12:29:39;7.43;;;3.40;;
13897;SDS011;7019;50.766;4.474;2023-07-31T12:32:20;9.10;;;3.87;;
13897;SDS011;7019;50.766;4.474;2023-07-31T12:34:49;7.43;;;4.00;;
13897;SDS011;7019;50.766;4.474;2023-07-31T12:37:17;8.17;;;3.67;;
13897;SDS011;7019;50.766;4.474;2023-07-31T12:39:44;6.63;;;3.90;;
13897;SDS011;7019;50.766;4.474;2023-07-31T12:42:11;6.43;;;3.90;;
13897;SDS011;7019;50.766;4.474;2023-07-31T12:44:38;6.43;;;3.83;;
13897;SDS011;7019;50.766;4.474;2023-07-31T12:47:05;7.40;;;3.90;;
13897;SDS011;7019;50.766;4.474;2023-07-31T12:49:32;6.73;;;3.97;;
13897;SDS011;7019;50.766;4.474;2023-07-31T12:51:59;5.63;;;3.80;;
13897;SDS011;7019;50.766;4.474;2023-07-31T12:54:28;8.07;;;3.97;;
13897;SDS011;7019;50.766;4.474;2023-07-31T12:56:55;9.50;;;4.37;;
13897;SDS011;7019;50.766;4.474;2023-07-31T12:59:22;5.37;;;3.63;;
13897;SDS011;7019;50.766;4.474;2023-07-31T13:01:49;10.63;;;3.70;;
13897;SDS011;7019;50.766;4.474;2023-07-31T13:04:16;6.83;;;2.87;;
13897;SDS011;7019;50.766;4.474;2023-07-31T13:06:43;7.37;;;3.10;;
13897;SDS011;7019;50.766;4.474;2023-07-31T13:09:10;8.07;;;4.27;;
13897;SDS011;7019;50.766;4.474;2023-07-31T13:11:39;7.00;;;3.50;;
13897;SDS011;7019;50.766;4.474;2023-07-31T13:14:06;5.27;;;3.40;;
13897;SDS011;7019;50.766;4.474;2023-07-31T13:16:33;6.83;;;3.03;;
13897;SDS011;7019;50.766;4.474;2023-07-31T13:18:59;7.63;;;3.63;;
13897;SDS011;7019;50.766;4.474;2023-07-31T13:21:26;6.73;;;3.30;;
13897;SDS011;7019;50.766;4.474;2023-07-31T13:23:53;7.27;;;3.13;;
13897;SDS011;7019;50.766;4.474;2023-07-31T13:26:23;9.70;;;3.93;;
13897;SDS011;7019;50.766;4.474;2023-07-31T13:28:51;6.80;;;2.90;;
13897;SDS011;7019;50.766;4.474;2023-07-31T13:31:18;6.10;;;3.40;;
13897;SDS011;7019;50.766;4.474;2023-07-31T13:33:45;4.23;;;2.97;;
13897;SDS011;7019;50.766;4.474;2023-07-31T13:36:12;5.03;;;3.00;;
13897;SDS011;7019;50.766;4.474;2023-07-31T13:38:39;5.63;;;2.70;;
13897;SDS011;7019;50.766;4.474;2023-07-31T13:41:06;5.17;;;2.00;;
13897;SDS011;7019;50.766;4.474;2023-07-31T13:43:33;4.87;;;2.27;;
13897;SDS011;7019;50.766;4.474;2023-07-31T13:46:02;4.67;;;2.73;;
13897;SDS011;7019;50.766;4.474;2023-07-31T13:48:31;4.73;;;2.47;;
13897;SDS011;7019;50.766;4.474;2023-07-31T13:50:59;6.40;;;2.50;;
13897;SDS011;7019;50.766;4.474;2023-07-31T13:53:26;7.93;;;2.40;;
13897;SDS011;7019;50.766;4.474;2023-07-31T13:55:53;2.80;;;2.20;;
13897;SDS011;7019;50.766;4.474;2023-07-31T13:58:21;5.30;;;2.90;;
13897;SDS011;7019;50.766;4.474;2023-07-31T14:00:48;4.50;;;2.77;;
13897;SDS011;7019;50.766;4.474;2023-07-31T14:03:16;7.70;;;2.53;;
13897;SDS011;7019;50.766;4.474;2023-07-31T14:05:43;3.90;;;2.30;;
13897;SDS011;7019;50.766;4.474;2023-07-31T14:08:10;4.20;;;2.20;;
13897;SDS011;7019;50.766;4.474;2023-07-31T14:10:38;7.20;;;2.50;;
13897;SDS011;7019;50.766;4.474;2023-07-31T14:13:05;6.33;;;2.27;;
13897;SDS011;7019;50.766;4.474;2023-07-31T14:15:32;4.73;;;2.20;;
13897;SDS011;7019;50.766;4.474;2023-07-31T14:18:00;4.30;;;3.17;;
13897;SDS011;7019;50.766;4.474;2023-07-31T14:20:29;4.70;;;2.33;;
13897;SDS011;7019;50.766;4.474;2023-07-31T14:22:56;4.20;;;2.90;;
13897;SDS011;7019;50.766;4.474;2023-07-31T14:25:24;6.07;;;2.90;;
13897;SDS011;7019;50.766;4.474;2023-07-31T14:27:51;5.53;;;2.90;;
13897;SDS011;7019;50.766;4.474;2023-07-31T14:30:18;4.23;;;2.50;;
13897;SDS011;7019;50.766;4.474;2023-07-31T14:32:45;4.40;;;2.40;;
13897;SDS011;7019;50.766;4.474;2023-07-31T14:35:12;6.60;;;3.13;;
13897;SDS011;7019;50.766;4.474;2023-07-31T14:37:41;5.57;;;2.90;;
13897;SDS011;7019;50.766;4.474;2023-07-31T14:40:10;7.87;;;2.47;;
13897;SDS011;7019;50.766;4.474;2023-07-31T14:42:38;7.77;;;2.50;;
13897;SDS011;7019;50.766;4.474;2023-07-31T14:45:06;4.30;;;2.13;;
13897;SDS011;7019;50.766;4.474;2023-07-31T14:47:35;5.53;;;2.10;;
13897;SDS011;7019;50.766;4.474;2023-07-31T14:50:02;3.97;;;2.00;;
13897;SDS011;7019;50.766;4.474;2023-07-31T14:52:29;2.83;;;1.70;;
13897;SDS011;7019;50.766;4.474;2023-07-31T14:54:58;4.23;;;2.23;;
13897;SDS011;7019;50.766;4.474;2023-07-31T14:57:25;5.30;;;2.37;;
13897;SDS011;7019;50.766;4.474;2023-07-31T14:59:52;5.33;;;2.20;;
13897;SDS011;7019;50.766;4.474;2023-07-31T15:02:19;3.93;;;1.90;;
13897;SDS011;7019;50.766;4.474;2023-07-31T15:04:46;2.43;;;1.70;;
13897;SDS011;7019;50.766;4.474;2023-07-31T15:07:13;5.07;;;1.97;;
13897;SDS011;7019;50.766;4.474;2023-07-31T15:09:40;3.73;;;2.00;;
13897;SDS011;7019;50.766;4.474;2023-07-31T15:12:09;2.03;;;1.53;;